Time;durP1;ratioP1;P1;durP2;ratioP2;P2;SDS_P1;SDS_P2;PMS_P1;PMS_P2;Temp;Humidity;BMP_temperature;BMP_pressure;BME280_temperature;BME280_humidity;BME280_pressure;Samples;Min_cycle;Max_cycle;Signal;HPM_P1;HPM_P2
2024/03/03 00:00:27;;;;;;;;;;;;;;;6.50;100.00;95204.94;30001;983;1876;-54
2024/03/03 00:00:58;;;;;;;;;;;;;;;6.50;100.00;95211.12;30001;983;1880;-55
2024/03/03 00:01:29;;;;;;;;;;;;;;;6.51;100.00;95209.22;30001;983;1863;-55
2024/03/03 00:02:00;;;;;;;;;;;;;;;6.51;100.00;95207.31;30001;983;1872;-53
2024/03/03 00:02:31;;;;;;;;;;;;;;;6.53;100.00;95204.31;30001;983;1876;-54
2024/03/03 00:03:02;;;;;;;;;;;;;;;6.51;100.00;95201.94;30001;982;1880;-55
2024/03/03 00:03:34;;;;;;;;;;;;;;;6.52;100.00;95208.13;30001;982;1876;-55
2024/03/03 00:04:05;;;;;;;;;;;;;;;6.52;100.00;95203.53;30001;982;1880;-55
2024/03/03 00:04:36;;;;;;;;;;;;;;;6.52;100.00;95198.13;30001;982;1876;-53
2024/03/03 00:05:07;;;;;;;;;;;;;;;6.52;100.00;95192.75;30001;982;1881;-55
2024/03/03 00:05:39;;;;;;;;;;;;;;;6.53;100.00;95199.72;30001;983;1875;-54
2024/03/03 00:06:10;;;;;;;;;;;;;;;6.53;100.00;95204.31;30001;983;1879;-53
2024/03/03 00:06:45;;;;;;;;;;;;;;;6.54;100.00;95195.94;30001;983;1862;-54
2024/03/03 00:07:17;;;;;;;;;;;;;;;6.54;100.00;95206.72;30001;983;1871;-55
2024/03/03 00:07:48;;;;;;;;;;;;;;;6.56;100.00;95206.41;30001;983;1876;-54
2024/03/03 00:08:22;;;;;;;;;;;;;;;6.56;100.00;95204.50;30001;983;1880;-54
2024/03/03 00:08:53;;;;;;;;;;;;;;;6.56;100.00;95199.13;30001;983;1876;-54
2024/03/03 00:09:24;;;;;;;;;;;;;;;6.56;100.00;95201.81;30001;983;1856;-55
2024/03/03 00:09:55;;;;;;;;;;;;;;;6.56;100.00;95193.72;30001;982;1849;-70
2024/03/03 00:10:26;;;;;;;;;;;;;;;6.57;100.00;95198.03;30001;982;1880;-54
2024/03/03 00:10:57;;;;;;;;;;;;;;;6.56;100.00;95193.72;30001;982;1876;-55
2024/03/03 00:11:28;;;;;;;;;;;;;;;6.56;100.00;95191.03;30001;982;1880;-54
2024/03/03 00:11:59;;;;;;;;;;;;;;;6.57;100.00;95195.31;30001;982;1863;-54
2024/03/03 00:12:31;;;;;;;;;;;;;;;6.57;100.00;95199.91;30001;982;1872;-54
2024/03/03 00:13:01;;;;;;;;;;;;;;;6.58;100.00;95196.12;30001;983;1875;-55
2024/03/03 00:13:32;;;;;;;;;;;;;;;6.59;100.00;95194.97;30001;983;1880;-54
2024/03/03 00:14:03;;;;;;;;;;;;;;;6.59;100.00;95195.78;30001;983;1875;-55
2024/03/03 00:14:35;;;;;;;;;;;;;;;6.60;100.00;95181.19;30001;986;1880;-54
2024/03/03 00:15:06;;;;;;;;;;;;;;;6.61;100.00;95182.78;30001;986;1868;-54
2024/03/03 00:15:37;;;;;;;;;;;;;;;6.62;100.00;95176.31;30001;983;1880;-54
2024/03/03 00:16:08;;;;;;;;;;;;;;;6.64;100.00;95174.09;30001;983;1876;-56
2024/03/03 00:16:40;;;;;;;;;;;;;;;6.65;100.00;95178.38;30001;983;1880;-55
2024/03/03 00:17:12;;;;;;;;;;;;;;;6.66;100.00;95171.88;30001;973;1873;-54
2024/03/03 00:17:43;;;;;;;;;;;;;;;6.66;100.00;95171.88;30001;982;1871;-54
2024/03/03 00:18:14;;;;;;;;;;;;;;;6.65;100.00;95175.69;30001;982;1876;-55
2024/03/03 00:18:45;;;;;;;;;;;;;;;6.66;100.00;95171.09;30001;982;1880;-54
2024/03/03 00:19:16;;;;;;;;;;;;;;;6.64;100.00;95174.09;30001;982;1876;-54
2024/03/03 00:19:50;;;;;;;;;;;;;;;6.63;100.00;95160.94;30001;982;1881;-53
2024/03/03 00:20:21;;;;;;;;;;;;;;;6.62;100.00;95165.53;30001;982;1775;-55
2024/03/03 00:20:52;;;;;;;;;;;;;;;6.62;100.00;95170.91;30001;983;1880;-54
2024/03/03 00:21:23;;;;;;;;;;;;;;;6.62;100.00;95170.13;30001;983;1875;-54
2024/03/03 00:21:54;;;;;;;;;;;;;;;6.61;100.00;95168.53;30001;983;1880;-55
2024/03/03 00:22:26;;;;;;;;;;;;;;;6.61;100.00;95163.94;30001;983;1862;-54
2024/03/03 00:22:57;;;;;;;;;;;;;;;6.60;100.00;95170.44;30001;983;1871;-55
2024/03/03 00:23:28;;;;;;;;;;;;;;;6.59;100.00;95160.75;30001;983;1876;-54
2024/03/03 00:23:59;;;;;;;;;;;;;;;6.58;100.00;95164.56;30001;983;1880;-54
2024/03/03 00:24:32;;;;;;;;;;;;;;;6.58;100.00;95169.97;30001;962;1801;-54
2024/03/03 00:25:04;;;;;;;;;;;;;;;6.57;100.00;95163.00;30001;982;1880;-54
2024/03/03 00:25:35;;;;;;;;;;;;;;;6.56;100.00;95164.09;30001;982;1876;-54
2024/03/03 00:26:05;;;;;;;;;;;;;;;6.55;100.00;95164.41;30001;982;1880;-54
2024/03/03 00:26:36;;;;;;;;;;;;;;;6.55;100.00;95162.50;30001;982;1876;-54
2024/03/03 00:27:07;;;;;;;;;;;;;;;6.55;100.00;95159.81;30001;982;1880;-55
2024/03/03 00:27:38;;;;;;;;;;;;;;;6.55;100.00;95170.59;30001;982;1863;-54
2024/03/03 00:28:10;;;;;;;;;;;;;;;6.56;100.00;95157.91;30001;972;1893;-55
2024/03/03 00:28:41;;;;;;;;;;;;;;;6.55;100.00;95162.50;30001;983;1875;-54
2024/03/03 00:29:13;;;;;;;;;;;;;;;6.55;100.00;95165.19;30001;983;1880;-54
2024/03/03 00:29:44;;;;;;;;;;;;;;;6.56;100.00;95158.69;30001;983;1875;-55
2024/03/03 00:30:16;;;;;;;;;;;;;;;6.56;100.00;95156.00;30001;983;1880;-54
2024/03/03 00:30:47;;;;;;;;;;;;;;;6.55;100.00;95165.19;30001;983;1876;-54
2024/03/03 00:31:18;;;;;;;;;;;;;;;6.56;100.00;95166.78;30001;983;1787;-54
2024/03/03 00:31:52;;;;;;;;;;;;;;;6.55;100.00;95154.41;30001;983;1876;-54
2024/03/03 00:32:23;;;;;;;;;;;;;;;6.56;100.00;95160.59;30001;982;1880;-54
2024/03/03 00:32:54;;;;;;;;;;;;;;;6.58;100.00;95153.00;30001;982;1863;-54
2024/03/03 00:33:25;;;;;;;;;;;;;;;6.59;100.00;95152.66;30001;982;1872;-54
2024/03/03 00:33:59;;;;;;;;;;;;;;;6.60;100.00;95156.16;30001;982;1876;-54
2024/03/03 00:34:30;;;;;;;;;;;;;;;6.58;100.00;95155.69;30001;982;1880;-54
2024/03/03 00:35:01;;;;;;;;;;;;;;;6.59;100.00;95154.56;30001;982;1876;-55
2024/03/03 00:35:32;;;;;;;;;;;;;;;6.58;100.00;95148.41;30001;972;1891;-54
2024/03/03 00:36:05;;;;;;;;;;;;;;;6.59;100.00;95152.66;30001;983;1875;-54
2024/03/03 00:36:37;;;;;;;;;;;;;;;6.58;100.00;95156.50;30001;983;1880;-54
2024/03/03 00:37:10;;;;;;;;;;;;;;;6.57;100.00;95156.81;30001;983;1875;-54
2024/03/03 00:37:44;;;;;;;;;;;;;;;6.55;100.00;95154.41;30001;983;1880;-54
2024/03/03 00:38:18;;;;;;;;;;;;;;;6.54;100.00;95155.50;30001;983;1863;-54
2024/03/03 00:38:49;;;;;;;;;;;;;;;6.52;100.00;95163.13;30001;983;1871;-55
2024/03/03 00:39:21;;;;;;;;;;;;;;;6.52;100.00;95159.63;30001;983;1876;-55
2024/03/03 00:39:52;;;;;;;;;;;;;;;6.50;100.00;95162.63;30001;982;1880;-54
2024/03/03 00:40:23;;;;;;;;;;;;;;;6.49;100.00;95163.72;30001;982;1876;-54
2024/03/03 00:40:54;;;;;;;;;;;;;;;6.47;100.00;95168.63;30001;982;1880;-55
2024/03/03 00:41:25;;;;;;;;;;;;;;;6.47;100.00;95168.63;30001;982;1876;-55
2024/03/03 00:41:56;;;;;;;;;;;;;;;6.46;100.00;95166.25;30001;982;1880;-54
2024/03/03 00:42:27;;;;;;;;;;;;;;;6.45;100.00;95161.94;30001;983;1875;-54
2024/03/03 00:42:58;;;;;;;;;;;;;;;6.46;100.00;95169.72;30001;983;1880;-55
2024/03/03 00:43:32;;;;;;;;;;;;;;;6.44;100.00;95163.84;30001;983;1862;-54
2024/03/03 00:44:04;;;;;;;;;;;;;;;6.45;100.00;95170.84;30001;983;1871;-55
2024/03/03 00:44:35;;;;;;;;;;;;;;;6.44;100.00;95166.53;30001;983;1875;-54
2024/03/03 00:45:06;;;;;;;;;;;;;;;6.46;100.00;95172.44;30001;972;1898;-55
2024/03/03 00:45:37;;;;;;;;;;;;;;;6.46;100.00;95171.63;30001;983;1876;-55
2024/03/03 00:46:08;;;;;;;;;;;;;;;6.47;100.00;95171.31;30001;983;1880;-55
2024/03/03 00:46:39;;;;;;;;;;;;;;;6.48;100.00;95174.81;30001;983;1876;-54
2024/03/03 00:47:10;;;;;;;;;;;;;;;6.47;100.00;95165.94;30001;983;1880;-54
2024/03/03 00:47:42;;;;;;;;;;;;;;;6.46;100.00;95167.03;30001;982;1876;-54
2024/03/03 00:48:13;;;;;;;;;;;;;;;6.47;100.00;95173.22;30001;982;1880;-54
2024/03/03 00:48:45;;;;;;;;;;;;;;;6.45;100.00;95168.13;30001;982;1863;-55
2024/03/03 00:49:15;;;;;;;;;;;;;;;6.45;100.00;95170.84;30001;982;1871;-54
2024/03/03 00:49:46;;;;;;;;;;;;;;;6.44;100.00;95166.53;30001;982;1876;-70
2024/03/03 00:50:17;;;;;;;;;;;;;;;6.45;100.00;95170.84;30001;983;1880;-54
2024/03/03 00:50:48;;;;;;;;;;;;;;;6.44;100.00;95163.84;30001;983;1875;-54
2024/03/03 00:51:19;;;;;;;;;;;;;;;6.45;100.00;95165.44;30001;983;1880;-54
2024/03/03 00:51:50;;;;;;;;;;;;;;;6.45;100.00;95164.66;30001;983;1876;-54
2024/03/03 00:52:20;;;;;;;;;;;;;;;6.46;100.00;95153.56;30001;983;1880;-55
2024/03/03 00:52:54;;;;;;;;;;;;;;;6.44;100.00;95158.47;30001;983;1875;-54
2024/03/03 00:53:25;;;;;;;;;;;;;;;6.41;100.00;95161.78;30001;983;1806;-55
2024/03/03 00:53:56;;;;;;;;;;;;;;;6.39;100.00;95161.28;30001;983;1863;-54
2024/03/03 00:54:27;;;;;;;;;;;;;;;6.37;100.00;95160.78;30001;983;1871;-54
2024/03/03 00:54:58;;;;;;;;;;;;;;;6.37;100.00;95152.72;30001;982;1876;-54
2024/03/03 00:55:29;;;;;;;;;;;;;;;6.37;100.00;95163.50;30001;960;1810;-56
2024/03/03 00:56:00;;;;;;;;;;;;;;;6.37;100.00;95147.31;30001;982;1876;-54
2024/03/03 00:56:30;;;;;;;;;;;;;;;6.37;100.00;95150.81;30001;982;1880;-54
2024/03/03 00:57:03;;;;;;;;;;;;;;;6.37;100.00;95156.19;30001;982;1876;-54
2024/03/03 00:57:36;;;;;;;;;;;;;;;6.37;100.00;95153.50;30001;983;1880;-54
2024/03/03 00:58:09;;;;;;;;;;;;;;;6.39;100.00;95153.19;30001;983;1875;-55
2024/03/03 00:58:40;;;;;;;;;;;;;;;6.42;100.00;95149.88;30001;983;1880;-54
2024/03/03 00:59:11;;;;;;;;;;;;;;;6.44;100.00;95145.00;30001;983;1862;-70
2024/03/03 00:59:42;;;;;;;;;;;;;;;6.46;100.00;95150.88;30001;983;1871;-55
2024/03/03 01:00:18;;;;;;;;;;;;;;;6.47;100.00;95151.66;30001;983;1875;-54
2024/03/03 01:00:49;;;;;;;;;;;;;;;6.47;100.00;95143.59;30001;983;1880;-54
2024/03/03 01:01:20;;;;;;;;;;;;;;;6.48;100.00;95143.28;30001;983;1876;-54
2024/03/03 01:01:50;;;;;;;;;;;;;;;6.50;100.00;95143.75;30001;983;1880;-54
2024/03/03 01:02:22;;;;;;;;;;;;;;;6.50;100.00;95141.06;30001;983;1807;-54
2024/03/03 01:02:53;;;;;;;;;;;;;;;6.51;100.00;95142.66;30001;982;1880;-54
2024/03/03 01:03:24;;;;;;;;;;;;;;;6.51;100.00;95139.97;30001;982;1876;-54
2024/03/03 01:03:55;;;;;;;;;;;;;;;6.51;100.00;95136.47;30001;982;1880;-54
2024/03/03 01:04:26;;;;;;;;;;;;;;;6.52;100.00;95143.47;30001;210;1863;-54
2024/03/03 01:04:57;;;;;;;;;;;;;;;6.52;100.00;95149.62;30001;982;1872;-54
2024/03/03 01:05:28;;;;;;;;;;;;;;;6.51;100.00;95148.06;30001;983;1875;-54
2024/03/03 01:05:59;;;;;;;;;;;;;;;6.53;100.00;95155.81;30001;983;1880;-71
2024/03/03 01:06:30;;;;;;;;;;;;;;;6.51;100.00;95148.06;30001;983;1875;-54
2024/03/03 01:07:01;;;;;;;;;;;;;;;6.50;100.00;95143.75;30001;983;1880;-54
2024/03/03 01:07:32;;;;;;;;;;;;;;;6.51;100.00;95147.25;30001;983;1875;-54
2024/03/03 01:08:03;;;;;;;;;;;;;;;6.50;100.00;95146.47;30001;983;1880;-54
2024/03/03 01:08:34;;;;;;;;;;;;;;;6.51;100.00;95145.34;30001;983;1876;-54
2024/03/03 01:09:05;;;;;;;;;;;;;;;6.51;100.00;95149.94;30001;983;1880;-54
2024/03/03 01:09:36;;;;;;;;;;;;;;;6.52;100.00;95143.47;30001;983;1863;-54
2024/03/03 01:10:07;;;;;;;;;;;;;;;6.53;100.00;95145.84;30001;982;1872;-54
2024/03/03 01:10:38;;;;;;;;;;;;;;;6.53;100.00;95148.53;30001;982;1876;-55
2024/03/03 01:11:09;;;;;;;;;;;;;;;6.54;100.00;95143.94;30001;982;1880;-54
2024/03/03 01:11:40;;;;;;;;;;;;;;;6.54;100.00;95141.25;30001;982;1876;-55
2024/03/03 01:12:11;;;;;;;;;;;;;;;6.53;100.00;95143.16;30001;982;1881;-55
2024/03/03 01:13:48;;;;;;;;;;;;;;;6.51;100.00;95148.06;89991;930;13000;-54
2024/03/03 01:14:21;;;;;;;;;;;;;;;6.51;100.00;95142.66;30001;983;1868;-54
2024/03/03 01:14:53;;;;;;;;;;;;;;;6.49;100.00;95139.47;30001;983;1854;-54
2024/03/03 01:15:25;;;;;;;;;;;;;;;6.49;100.00;95142.16;30001;973;1902;-54
2024/03/03 01:15:56;;;;;;;;;;;;;;;6.48;100.00;95135.19;30001;982;1877;-54
2024/03/03 01:16:27;;;;;;;;;;;;;;;6.49;100.00;95142.16;30001;982;1881;-54
2024/03/03 01:16:58;;;;;;;;;;;;;;;6.48;100.00;95135.19;30001;982;1877;-54
2024/03/03 01:17:29;;;;;;;;;;;;;;;6.47;100.00;95140.88;30001;982;1881;-55
2024/03/03 01:18:00;;;;;;;;;;;;;;;6.46;100.00;95139.28;30001;983;1876;-55
2024/03/03 01:18:31;;;;;;;;;;;;;;;6.45;100.00;95137.72;30001;983;1880;-55
2024/03/03 01:19:01;;;;;;;;;;;;;;;6.45;100.00;95133.13;30001;983;1876;-54
2024/03/03 01:19:34;;;;;;;;;;;;;;;6.45;100.00;95133.13;30001;983;1880;-54
2024/03/03 01:20:07;;;;;;;;;;;;;;;6.45;100.00;95126.94;30001;983;1863;-55
2024/03/03 01:20:38;;;;;;;;;;;;;;;6.46;100.00;95132.00;30001;983;1871;-54
2024/03/03 01:21:09;;;;;;;;;;;;;;;6.44;100.00;95136.91;30001;983;1876;-70
2024/03/03 01:21:40;;;;;;;;;;;;;;;6.46;100.00;95128.53;30001;983;1881;-54
2024/03/03 01:22:11;;;;;;;;;;;;;;;6.46;100.00;95132.00;30001;982;1876;-54
2024/03/03 01:22:42;;;;;;;;;;;;;;;6.46;100.00;95132.00;30001;982;1881;-54
2024/03/03 01:23:14;;;;;;;;;;;;;;;6.45;100.00;95127.72;30001;982;1876;-54
2024/03/03 01:23:44;;;;;;;;;;;;;;;6.46;100.00;95128.53;30001;982;1881;-54
2024/03/03 01:24:15;;;;;;;;;;;;;;;6.44;100.00;95126.12;30001;982;1876;-54
2024/03/03 01:24:46;;;;;;;;;;;;;;;6.45;100.00;95122.34;30001;982;1881;-54
2024/03/03 01:25:17;;;;;;;;;;;;;;;6.46;100.00;95115.06;30001;982;1863;-54
2024/03/03 01:25:49;;;;;;;;;;;;;;;6.46;100.00;95123.94;30001;983;1871;-54
2024/03/03 01:26:21;;;;;;;;;;;;;;;6.46;100.00;95123.13;30001;983;1876;-54
2024/03/03 01:26:52;;;;;;;;;;;;;;;6.45;100.00;95116.94;30001;983;1880;-55
2024/03/03 01:27:22;;;;;;;;;;;;;;;6.45;100.00;95116.94;30001;983;1876;-55
2024/03/03 01:27:53;;;;;;;;;;;;;;;6.47;100.00;95116.63;30001;983;1831;-54
2024/03/03 01:28:24;;;;;;;;;;;;;;;6.47;100.00;95114.75;30001;983;1876;-54
2024/03/03 01:28:55;;;;;;;;;;;;;;;6.48;100.00;95110.16;30001;983;1881;-54
2024/03/03 01:29:27;;;;;;;;;;;;;;;6.48;100.00;95104.75;30001;972;1887;-55
2024/03/03 01:29:58;;;;;;;;;;;;;;;6.48;100.00;95110.94;30001;982;1880;-55
2024/03/03 01:30:29;;;;;;;;;;;;;;;6.48;100.00;95105.56;30001;982;1863;-55
2024/03/03 01:31:02;;;;;;;;;;;;;;;6.49;100.00;95103.66;30001;982;1872;-54
2024/03/03 01:31:33;;;;;;;;;;;;;;;6.48;100.00;95102.06;30001;986;1876;-55
2024/03/03 01:32:04;;;;;;;;;;;;;;;6.47;100.00;95103.97;30001;982;1881;-55
2024/03/03 01:32:35;;;;;;;;;;;;;;;6.46;100.00;95107.75;30001;987;1877;-55
2024/03/03 01:33:06;;;;;;;;;;;;;;;6.45;100.00;95100.78;30001;983;1880;-54
2024/03/03 01:33:37;;;;;;;;;;;;;;;6.45;100.00;95100.00;30001;983;1876;-55
2024/03/03 01:34:07;;;;;;;;;;;;;;;6.44;100.00;95101.88;30001;983;1880;-54
2024/03/03 01:34:38;;;;;;;;;;;;;;;6.43;100.00;95108.37;30001;983;1876;-54
2024/03/03 01:35:09;;;;;;;;;;;;;;;6.43;100.00;95104.88;30001;983;1880;-54
2024/03/03 01:35:41;;;;;;;;;;;;;;;6.41;100.00;95105.19;30000;983;2008;-54
2024/03/03 01:36:12;;;;;;;;;;;;;;;6.41;100.00;95105.19;30001;983;1872;-54
2024/03/03 01:36:44;;;;;;;;;;;;;;;6.40;100.00;95109.00;30001;983;1876;-54
2024/03/03 01:37:15;;;;;;;;;;;;;;;6.38;100.00;95112.00;30001;982;1881;-55
2024/03/03 01:37:49;;;;;;;;;;;;;;;6.33;100.00;95108.63;30001;982;1876;-54
2024/03/03 01:38:20;;;;;;;;;;;;;;;6.31;100.00;95108.94;30001;982;1881;-54
2024/03/03 01:38:51;;;;;;;;;;;;;;;6.30;100.00;95109.25;30001;982;1877;-54
2024/03/03 01:39:22;;;;;;;;;;;;;;;6.28;100.00;95112.25;30001;982;1881;-54
2024/03/03 01:39:53;;;;;;;;;;;;;;;6.27;100.00;95112.56;30001;982;1877;-54
2024/03/03 01:40:25;;;;;;;;;;;;;;;6.26;100.00;95108.28;30001;983;1880;-54
2024/03/03 01:40:56;;;;;;;;;;;;;;;6.25;100.00;95112.88;30001;983;1862;-54
2024/03/03 01:41:27;;;;;;;;;;;;;;;6.25;100.00;95106.69;30001;983;1871;-70
2024/03/03 01:41:58;;;;;;;;;;;;;;;6.24;100.00;95102.41;30001;983;1876;-54
2024/03/03 01:42:29;;;;;;;;;;;;;;;6.24;100.00;95110.47;30001;983;1790;-54
2024/03/03 01:43:02;;;;;;;;;;;;;;;6.23;100.00;95117.78;30001;983;1786;-54
2024/03/03 01:43:33;;;;;;;;;;;;;;;6.23;100.00;95108.91;30001;983;1880;-54
2024/03/03 01:44:04;;;;;;;;;;;;;;;6.22;100.00;95107.31;30001;983;1876;-55
2024/03/03 01:44:35;;;;;;;;;;;;;;;6.21;100.00;95109.22;30001;983;1880;-70
2024/03/03 01:45:12;;;;;;;;;;;;;;;6.20;100.00;95101.44;30001;982;1876;-70
2024/03/03 01:45:43;;;;;;;;;;;;;;;6.19;100.00;95102.56;30001;982;1881;-55
2024/03/03 01:46:14;;;;;;;;;;;;;;;6.18;100.00;95103.66;30001;982;1863;-54
2024/03/03 01:46:45;;;;;;;;;;;;;;;6.18;100.00;95103.66;30001;982;1872;-54
2024/03/03 01:47:16;;;;;;;;;;;;;;;6.18;100.00;95106.34;30001;983;1876;-55
2024/03/03 01:47:47;;;;;;;;;;;;;;;6.16;100.00;95100.47;30001;983;1880;-54
2024/03/03 01:48:18;;;;;;;;;;;;;;;6.15;100.00;95104.28;30001;983;1876;-54
2024/03/03 01:48:49;;;;;;;;;;;;;;;6.14;100.00;95098.09;30001;983;1880;-54
2024/03/03 01:49:20;;;;;;;;;;;;;;;6.13;100.00;95104.56;30001;983;1876;-54
2024/03/03 01:49:52;;;;;;;;;;;;;;;6.13;100.00;95111.84;30001;983;1880;-54
2024/03/03 01:50:24;;;;;;;;;;;;;;;6.13;100.00;95117.25;30001;983;1876;-54
2024/03/03 01:50:55;;;;;;;;;;;;;;;6.13;100.00;95107.28;30001;983;1880;-54
2024/03/03 01:51:26;;;;;;;;;;;;;;;6.13;100.00;95112.66;30001;983;1783;-55
2024/03/03 01:51:59;;;;;;;;;;;;;;;6.13;100.00;95115.34;30001;983;1872;-54
2024/03/03 01:52:30;;;;;;;;;;;;;;;6.13;100.00;95111.84;30001;982;1876;-54
2024/03/03 01:53:01;;;;;;;;;;;;;;;6.14;100.00;95110.75;30001;982;1881;-72
2024/03/03 01:53:33;;;;;;;;;;;;;;;6.14;100.00;95102.69;30001;982;1877;-54
2024/03/03 01:54:04;;;;;;;;;;;;;;;6.15;100.00;95105.06;30001;982;1881;-54
2024/03/03 01:54:36;;;;;;;;;;;;;;;6.17;100.00;95094.78;30001;982;1877;-54
2024/03/03 01:55:08;;;;;;;;;;;;;;;6.19;100.00;95099.87;30001;983;1880;-55
2024/03/03 01:55:39;;;;;;;;;;;;;;;6.20;100.00;95098.75;30001;983;1876;-55
2024/03/03 01:56:10;;;;;;;;;;;;;;;6.21;100.00;95097.66;30001;983;1880;-55
2024/03/03 01:56:44;;;;;;;;;;;;;;;6.22;100.00;95097.34;30001;983;1863;-55
2024/03/03 01:57:19;;;;;;;;;;;;;;;6.25;100.00;95096.72;30001;983;1872;-54
2024/03/03 01:58:00;;;;;;;;;;;;;;;6.26;100.00;95097.50;30001;983;1876;-54
2024/03/03 01:58:32;;;;;;;;;;;;;;;6.27;100.00;95089.12;30001;983;1880;-70
2024/03/03 01:59:03;;;;;;;;;;;;;;;6.28;100.00;95089.91;30001;983;1876;-55
2024/03/03 01:59:34;;;;;;;;;;;;;;;6.28;100.00;95095.28;30001;983;1880;-54
2024/03/03 02:00:11;;;;;;;;;;;;;;;6.29;100.00;95091.50;30001;982;1876;-54
2024/03/03 02:00:42;;;;;;;;;;;;;;;6.28;100.00;95090.69;30001;982;1881;-55
2024/03/03 02:01:15;;;;;;;;;;;;;;;6.29;100.00;95088.81;30001;982;1877;-54
2024/03/03 02:01:49;;;;;;;;;;;;;;;6.28;100.00;95092.59;30001;982;1868;-54
2024/03/03 02:02:22;;;;;;;;;;;;;;;6.26;100.00;95092.91;30001;983;1867;-54
2024/03/03 02:02:55;;;;;;;;;;;;;;;6.26;100.00;95092.13;30001;983;1880;-54
2024/03/03 02:03:27;;;;;;;;;;;;;;;6.23;100.00;95092.75;30001;983;1876;-54
2024/03/03 02:03:58;;;;;;;;;;;;;;;6.21;100.00;95090.38;30001;983;1880;-55
2024/03/03 02:04:29;;;;;;;;;;;;;;;6.20;100.00;95096.06;30001;983;1876;-55
2024/03/03 02:05:00;;;;;;;;;;;;;;;6.18;100.00;95085.59;30001;983;1880;-54
2024/03/03 02:05:34;;;;;;;;;;;;;;;6.15;100.00;95083.53;30001;983;1876;-54
2024/03/03 02:06:06;;;;;;;;;;;;;;;6.15;100.00;95083.53;30001;983;1880;-54
2024/03/03 02:06:38;;;;;;;;;;;;;;;6.16;100.00;95084.31;30001;983;1876;-54
2024/03/03 02:07:11;;;;;;;;;;;;;;;6.16;100.00;95087.00;30001;983;1867;-55
2024/03/03 02:07:42;;;;;;;;;;;;;;;6.17;100.00;95083.22;30001;982;1868;-54
2024/03/03 02:08:14;;;;;;;;;;;;;;;6.17;100.00;95091.28;30001;982;1881;-55
2024/03/03 02:08:45;;;;;;;;;;;;;;;6.17;100.00;95084.00;30001;982;1876;-70
2024/03/03 02:09:17;;;;;;;;;;;;;;;6.18;100.00;95085.59;30001;982;1881;-55
2024/03/03 02:09:48;;;;;;;;;;;;;;;6.18;100.00;95082.91;30001;983;1788;-55
2024/03/03 02:10:22;;;;;;;;;;;;;;;6.20;100.00;95088.00;30001;983;1880;-54
2024/03/03 02:10:53;;;;;;;;;;;;;;;6.21;100.00;95086.88;30001;983;1876;-55
2024/03/03 02:11:24;;;;;;;;;;;;;;;6.21;100.00;95078.81;30001;983;1880;-54
2024/03/03 02:11:56;;;;;;;;;;;;;;;6.22;100.00;95080.41;30001;983;1876;-55
2024/03/03 02:12:28;;;;;;;;;;;;;;;6.23;100.00;95082.78;30001;983;1867;-56
2024/03/03 02:12:59;;;;;;;;;;;;;;;6.23;100.00;95081.97;30001;983;1868;-54
2024/03/03 02:13:30;;;;;;;;;;;;;;;6.22;100.00;95083.88;30001;983;1881;-54
2024/03/03 02:14:01;;;;;;;;;;;;;;;6.21;100.00;95079.59;30001;983;1877;-54
2024/03/03 02:14:32;;;;;;;;;;;;;;;6.20;100.00;95082.59;30001;983;1881;-54
2024/03/03 02:15:04;;;;;;;;;;;;;;;6.19;100.00;95081.00;30001;982;1877;-55
2024/03/03 02:15:39;;;;;;;;;;;;;;;6.18;100.00;95084.81;30001;982;1881;-54
2024/03/03 02:16:10;;;;;;;;;;;;;;;6.17;100.00;95083.22;30001;982;1877;-55
2024/03/03 02:16:41;;;;;;;;;;;;;;;6.15;100.00;95080.81;30001;982;1881;-54
2024/03/03 02:17:12;;;;;;;;;;;;;;;6.14;100.00;95084.63;30001;982;1877;-54
2024/03/03 02:17:43;;;;;;;;;;;;;;;6.14;100.00;95083.81;30001;200;1867;-55
2024/03/03 02:18:14;;;;;;;;;;;;;;;6.12;100.00;95092.22;30001;983;1867;-55
2024/03/03 02:18:45;;;;;;;;;;;;;;;6.11;100.00;95087.13;30001;983;1880;-54
2024/03/03 02:19:17;;;;;;;;;;;;;;;6.07;100.00;95088.84;30001;983;1876;-54
2024/03/03 02:19:48;;;;;;;;;;;;;;;6.05;100.00;95087.25;30001;983;1880;-55
2024/03/03 02:20:19;;;;;;;;;;;;;;;6.03;100.00;95086.78;30001;983;1876;-70
2024/03/03 02:20:49;;;;;;;;;;;;;;;6.03;100.00;95085.97;30001;983;1881;-55
2024/03/03 02:21:24;;;;;;;;;;;;;;;5.99;100.00;95093.88;30001;983;1876;-54
2024/03/03 02:22:14;;;;;;;;;;;;;;;5.99;100.00;95080.41;30001;982;1881;-54
2024/03/03 02:22:45;;;;;;;;;;;;;;;5.98;100.00;95091.47;30001;982;1863;-54
2024/03/03 02:23:16;;;;;;;;;;;;;;;5.98;100.00;95092.28;30001;982;1872;-70
2024/03/03 02:23:47;;;;;;;;;;;;;;;5.96;100.00;95088.31;30001;982;1877;-54
2024/03/03 02:24:18;;;;;;;;;;;;;;;5.96;100.00;95086.41;30001;982;1881;-55
2024/03/03 02:24:49;;;;;;;;;;;;;;;5.94;100.00;95083.22;30001;982;1877;-55
2024/03/03 02:25:21;;;;;;;;;;;;;;;5.94;100.00;95085.13;30001;983;1880;-54
2024/03/03 02:25:52;;;;;;;;;;;;;;;5.94;100.00;95085.13;30001;969;1897;-54
2024/03/03 02:26:25;;;;;;;;;;;;;;;5.94;100.00;95085.91;30001;983;1880;-55
2024/03/03 02:26:57;;;;;;;;;;;;;;;5.94;100.00;95088.59;30001;983;1876;-54
2024/03/03 02:27:30;;;;;;;;;;;;;;;5.93;100.00;95087.00;30001;983;1881;-54
2024/03/03 02:28:01;;;;;;;;;;;;;;;5.94;100.00;95085.91;30001;983;1863;-54
2024/03/03 02:28:33;;;;;;;;;;;;;;;5.94;100.00;95087.81;30001;983;1872;-55
2024/03/03 02:29:05;;;;;;;;;;;;;;;5.93;100.00;95083.53;30001;982;1877;-54
2024/03/03 02:29:36;;;;;;;;;;;;;;;5.94;100.00;95090.50;30001;982;1881;-54
2024/03/03 02:30:08;;;;;;;;;;;;;;;5.94;100.00;95096.69;30001;982;1877;-54
2024/03/03 02:30:39;;;;;;;;;;;;;;;5.93;100.00;95089.72;30001;982;1835;-54
2024/03/03 02:31:10;;;;;;;;;;;;;;;5.91;100.00;95091.91;30001;982;1877;-54
2024/03/03 02:31:41;;;;;;;;;;;;;;;5.90;100.00;95095.69;30001;982;1881;-55
2024/03/03 02:32:11;;;;;;;;;;;;;;;5.85;100.00;95087.75;30001;982;1864;-55
2024/03/03 02:32:44;;;;;;;;;;;;;;;5.82;100.00;95093.75;30001;983;1872;-54
2024/03/03 02:33:15;;;;;;;;;;;;;;;5.81;100.00;95086.75;30001;983;1876;-54
2024/03/03 02:33:46;;;;;;;;;;;;;;;5.80;100.00;95095.94;30001;983;1880;-54
2024/03/03 02:34:17;;;;;;;;;;;;;;;5.79;100.00;95099.72;30001;983;1876;-55
2024/03/03 02:34:48;;;;;;;;;;;;;;;5.80;100.00;95095.16;30001;983;1881;-54
2024/03/03 02:35:19;;;;;;;;;;;;;;;5.79;100.00;95091.66;30001;983;1876;-54
2024/03/03 02:35:49;;;;;;;;;;;;;;;5.79;100.00;95088.97;30001;983;1881;-54
2024/03/03 02:36:20;;;;;;;;;;;;;;;5.79;100.00;95094.34;30001;983;1876;-54
2024/03/03 02:36:51;;;;;;;;;;;;;;;5.78;100.00;95092.75;30001;982;1881;-54
2024/03/03 02:37:22;;;;;;;;;;;;;;;5.78;100.00;95091.97;30001;982;1863;-54
2024/03/03 02:37:53;;;;;;;;;;;;;;;5.77;100.00;95085.78;30001;982;1872;-54
2024/03/03 02:38:24;;;;;;;;;;;;;;;5.77;100.00;95093.84;30001;982;1877;-54
2024/03/03 02:38:57;;;;;;;;;;;;;;;5.79;100.00;95088.16;30001;982;1881;-54
2024/03/03 02:39:28;;;;;;;;;;;;;;;5.80;100.00;95084.37;30001;982;1877;-54
2024/03/03 02:39:59;;;;;;;;;;;;;;;5.81;100.00;95081.38;30001;983;1880;-56
2024/03/03 02:40:29;;;;;;;;;;;;;;;5.81;100.00;95077.91;30001;983;1876;-55
2024/03/03 02:41:02;;;;;;;;;;;;;;;5.82;100.00;95077.59;30001;983;1880;-54
2024/03/03 02:41:33;;;;;;;;;;;;;;;5.82;100.00;95082.97;30001;983;1876;-55
2024/03/03 02:42:04;;;;;;;;;;;;;;;5.84;100.00;95083.47;30001;983;1881;-54
2024/03/03 02:42:38;;;;;;;;;;;;;;;5.85;100.00;95078.88;30001;983;1863;-55
2024/03/03 02:43:09;;;;;;;;;;;;;;;5.85;100.00;95076.19;30001;983;1872;-54
2024/03/03 02:43:43;;;;;;;;;;;;;;;5.86;100.00;95083.16;30001;983;1876;-54
2024/03/03 02:44:14;;;;;;;;;;;;;;;5.87;100.00;95082.06;30001;982;1881;-54
2024/03/03 02:44:45;;;;;;;;;;;;;;;5.86;100.00;95089.34;30001;982;1877;-55
2024/03/03 02:45:16;;;;;;;;;;;;;;;5.86;100.00;95083.94;30001;982;1881;-54
2024/03/03 02:45:47;;;;;;;;;;;;;;;5.85;100.00;95078.88;30001;982;1877;-54
2024/03/03 02:46:18;;;;;;;;;;;;;;;5.83;100.00;95084.56;30001;982;1881;-54
2024/03/03 02:46:49;;;;;;;;;;;;;;;5.82;100.00;95082.19;30001;982;1877;-54
2024/03/03 02:47:20;;;;;;;;;;;;;;;5.82;100.00;95090.25;30001;982;1881;-54
2024/03/03 02:47:53;;;;;;;;;;;;;;;5.81;100.00;95084.06;30001;983;1863;-55
2024/03/03 02:48:24;;;;;;;;;;;;;;;5.82;100.00;95084.87;30001;983;1872;-54
2024/03/03 02:48:55;;;;;;;;;;;;;;;5.81;100.00;95085.97;30001;987;1876;-55
2024/03/03 02:49:26;;;;;;;;;;;;;;;5.81;100.00;95085.97;30001;983;1881;-54
2024/03/03 02:49:57;;;;;;;;;;;;;;;5.80;100.00;95089.75;30001;983;1876;-55